Sunday, October 21, 2018, 7:11 PM EDT
Back to Local

KHFD, Hartford-brainard Airport

Location: Hartford, CT, United States Lat: 41.733
Local Time: 7:11 PM EDT (23:11 GMT) Lon: -72.65
Time Zone: US/Eastern Elev: 19 ft

Show me the last for .
Show Decoded

2018-10-21 18:53 METAR KHFD 212253Z 32017G23KT 10SM CLR 06/M07 A3003 RMK AO2 SLP168 T00561072 =
2018-10-21 17:53 METAR KHFD 212153Z 31009G18KT 10SM CLR 06/M07 A2999 RMK AO2 SLP156 T00611067 =
2018-10-21 16:53 METAR KHFD 212053Z 31014G22KT 10SM CLR 07/M07 A2995 RMK AO2 SLP142 T00721067
                 53017 =
2018-10-21 15:53 METAR KHFD 211953Z 33014G22KT 10SM CLR 08/M07 A2992 RMK AO2 SLP133 T00781067 =
2018-10-21 14:53 METAR KHFD 211853Z 33016G24KT 10SM SCT055 08/M06 A2990 RMK AO2 PK WND 30029/1754
                 SLP126 T00831056 =
2018-10-21 13:53 METAR KHFD 211753Z 31016G29KT 10SM OVC050 07/M04 A2990 RMK AO2 PK WND 34029/1749
                 SLP126 T00721039 10089 20067 51011 =
2018-10-21 12:53 METAR KHFD 211653Z 33018G25KT 10SM OVC049 08/M03 A2989 RMK AO2 SLP122 T00781028
                 =
2018-10-21 11:53 METAR KHFD 211553Z 33015G23KT 10SM OVC045 07/M03 A2989 RMK AO2 PK WND 33027/1524
                 SLP120 T00671028 =
2018-10-21 10:53 METAR KHFD 211453Z 31014G27KT 10SM OVC049 07/M02 A2987 RMK AO2 PK WND 31027/1451
                 SLP115 T00721017 51041 =
2018-10-21 09:53 METAR KHFD 211353Z 32012G21KT 10SM CLR 07/M01 A2984 RMK AO2 SLP104 T00721006 =
2018-10-21 08:53 METAR KHFD 211253Z 32013G18KT 10SM FEW050 OVC100 08/00 A2980 RMK AO2 SLP090
                 T00780000 =
2018-10-21 07:53 METAR KHFD 211153Z 34005KT 10SM SCT070 OVC085 08/05 A2975 RMK AO2 RAE00 SLP074
                 P0000 60002 70008 T00780050 10094 20078 53043 =
2018-10-21 06:53 METAR KHFD 211053Z 01006KT 10SM -RA SCT035 BKN047 OVC065 08/05 A2970 RMK AO2
                 RAB20 SLP056 P0001 T00830050 =
2018-10-21 05:53 METAR KHFD 210953Z 34006KT 10SM SCT042 OVC060 09/04 A2966 RMK AO2 RAB04E17
                 SLP043 P0000 T00890039 =
2018-10-21 04:53 METAR KHFD 210853Z AUTO 34008KT 10SM OVC055 09/04 A2962 RMK AO2 SLP031 60001
                 T00890044 53007 =
2018-10-21 03:53 METAR KHFD 210753Z AUTO 35005KT 10SM OVC055 09/05 A2960 RMK AO2 SLP022 T00890050
                 =
2018-10-21 02:53 METAR KHFD 210653Z AUTO 36005KT 10SM BKN046 OVC060 09/06 A2959 RMK AO2 RAE17
                 SLP020 P0001 T00940061 =
2018-10-21 01:53 METAR KHFD 210553Z AUTO 31003KT 5SM RA BR FEW035 BKN048 OVC060 09/07 A2960 RMK
                 AO2 RAB29 SLP023 P0003 60006 T00940072 10106 20089 55005 =
2018-10-21 00:53 METAR KHFD 210453Z AUTO 00000KT 10SM BKN060 OVC090 10/09 A2959 RMK AO2 RAE17
                 SLP020 P0003 T01000089 401720089 =
2018-10-20 23:53 METAR KHFD 210353Z 00000KT 8SM -RA SCT060 OVC080 10/08 A2961 RMK AO2 RAB50
                 SLP028 P0000 T01000083 =
2018-10-20 22:53 METAR KHFD 210253Z 00000KT 10SM BKN065 OVC085 09/08 A2962 RMK AO2 SLP029
                 T00940078 53005 =
2018-10-20 21:53 METAR KHFD 210153Z 17004KT 10SM FEW070 OVC085 10/08 A2961 RMK AO2 SLP026
                 T01000078 =
2018-10-20 20:53 METAR KHFD 210053Z 00000KT 10SM BKN070 OVC090 10/08 A2960 RMK AO2 SLP024
                 T01000078 =
2018-10-20 19:53 METAR KHFD 202353Z 00000KT 10SM CLR 09/07 A2960 RMK AO2 SLP023 T00940072 10172
                 20089 51008 =

Support USWX by starting your Amazon purchase here.